createdAt,value
2024-03-08T00:00:34.229Z,33.05
2024-03-08T00:05:31.591Z,35.47
2024-03-08T00:08:01.866Z,35.78
2024-03-08T00:10:30.211Z,30.50
2024-03-08T00:12:59.264Z,29.25
2024-03-08T00:15:27.209Z,29.83
2024-03-08T00:17:55.298Z,29.60
2024-03-08T00:20:25.390Z,31.08
2024-03-08T00:22:53.704Z,26.13
2024-03-08T00:25:22.585Z,24.42
2024-03-08T00:27:51.443Z,28.08
2024-03-08T00:30:18.968Z,24.75
2024-03-08T00:32:46.443Z,26.85
2024-03-08T00:35:14.189Z,25.75
2024-03-08T00:37:43.261Z,26.20
2024-03-08T00:40:12.520Z,25.80
2024-03-08T00:42:41.292Z,31.50
2024-03-08T00:45:09.430Z,22.30
2024-03-08T00:47:36.888Z,21.75
2024-03-08T00:50:09.281Z,17.73
2024-03-08T00:52:38.356Z,19.85
2024-03-08T00:55:07.064Z,16.80
2024-03-08T00:57:35.334Z,17.33
2024-03-08T01:00:05.718Z,14.25
2024-03-08T01:02:37.713Z,16.40
2024-03-08T01:05:08.832Z,15.80
2024-03-08T01:07:37.494Z,15.40
2024-03-08T01:10:05.862Z,12.45
2024-03-08T01:12:33.534Z,12.65
2024-03-08T01:15:01.056Z,13.98
2024-03-08T01:17:28.633Z,14.52
2024-03-08T01:19:56.203Z,13.98
2024-03-08T01:22:24.116Z,13.32
2024-03-08T01:24:51.453Z,16.08
2024-03-08T01:27:19.809Z,13.50
2024-03-08T01:29:47.636Z,16.17
2024-03-08T01:32:18.605Z,15.82
2024-03-08T01:34:49.431Z,14.88
2024-03-08T01:37:16.935Z,13.35
2024-03-08T01:39:44.614Z,14.07
2024-03-08T01:42:16.875Z,11.15
2024-03-08T01:44:45.237Z,11.27
2024-03-08T01:47:13.216Z,17.17
2024-03-08T01:49:42.503Z,15.68
2024-03-08T01:52:09.961Z,12.40
2024-03-08T01:54:37.612Z,14.43
2024-03-08T01:57:23.291Z,16.15
2024-03-08T01:59:52.133Z,14.70
2024-03-08T02:02:21.318Z,13.32
2024-03-08T02:04:49.023Z,17.27
2024-03-08T02:07:16.457Z,15.95
2024-03-08T02:09:44.426Z,13.45
2024-03-08T02:12:12.393Z,12.65
2024-03-08T02:14:41.545Z,13.68
2024-03-08T02:17:09.058Z,11.88
2024-03-08T02:19:37.692Z,15.20
2024-03-08T02:22:05.922Z,13.13
2024-03-08T02:24:34.804Z,15.00
2024-03-08T02:27:02.777Z,13.38
2024-03-08T02:29:30.559Z,12.60
2024-03-08T02:31:58.647Z,11.35
2024-03-08T02:34:25.911Z,9.90
2024-03-08T02:36:53.173Z,11.35
2024-03-08T02:39:21.322Z,10.02
2024-03-08T02:41:48.843Z,12.63
2024-03-08T02:44:16.301Z,15.10
2024-03-08T02:46:43.579Z,13.85
2024-03-08T02:49:13.183Z,14.93
2024-03-08T02:51:40.428Z,11.30
2024-03-08T02:54:07.995Z,13.05
2024-03-08T02:56:36.464Z,10.57
2024-03-08T02:59:04.252Z,15.57
2024-03-08T03:01:33.349Z,12.93
2024-03-08T03:04:01.264Z,10.43
2024-03-08T03:06:28.612Z,13.80
2024-03-08T03:08:55.966Z,12.20
2024-03-08T03:11:23.419Z,16.15
2024-03-08T03:13:50.970Z,10.13
2024-03-08T03:16:21.917Z,11.68
2024-03-08T03:18:49.371Z,13.13
2024-03-08T03:21:17.362Z,17.55
2024-03-08T03:23:44.677Z,14.05
2024-03-08T03:26:14.929Z,13.43
2024-03-08T03:28:42.282Z,14.48
2024-03-08T03:31:15.664Z,15.30
2024-03-08T03:33:43.403Z,12.13
2024-03-08T03:36:11.707Z,12.27
2024-03-08T03:38:39.213Z,14.20
2024-03-08T03:41:11.820Z,13.55
2024-03-08T03:43:40.311Z,12.80
2024-03-08T03:46:08.953Z,14.93
2024-03-08T03:48:36.353Z,13.40
2024-03-08T03:51:03.999Z,13.18
2024-03-08T03:53:31.447Z,17.33
2024-03-08T03:55:59.128Z,14.05
2024-03-08T03:58:28.814Z,13.05
2024-03-08T04:00:56.193Z,13.77
2024-03-08T04:03:23.553Z,13.50
2024-03-08T04:05:50.944Z,12.82
2024-03-08T04:08:18.375Z,17.65
2024-03-08T04:10:45.684Z,17.35
2024-03-08T04:13:14.174Z,13.88
2024-03-08T04:15:41.423Z,14.75
2024-03-08T04:18:08.802Z,12.50
2024-03-08T04:20:36.199Z,13.27
2024-03-08T04:23:04.226Z,14.73
2024-03-08T04:25:32.230Z,14.40
2024-03-08T04:27:59.720Z,12.40
2024-03-08T04:30:29.477Z,13.05
2024-03-08T04:32:57.078Z,12.45
2024-03-08T04:35:24.417Z,12.32
2024-03-08T04:37:52.313Z,13.95
2024-03-08T04:40:20.414Z,14.55
2024-03-08T04:42:47.927Z,12.27
2024-03-08T04:45:15.333Z,13.63
2024-03-08T04:47:42.712Z,13.55
2024-03-08T04:50:10.747Z,16.80
2024-03-08T04:52:38.061Z,15.00
2024-03-08T04:55:06.981Z,13.82
2024-03-08T04:57:34.359Z,16.75
2024-03-08T05:00:03.834Z,14.77
2024-03-08T05:02:31.370Z,14.00
2024-03-08T05:04:58.573Z,15.63
2024-03-08T05:07:25.835Z,16.65
2024-03-08T05:09:53.478Z,13.05
2024-03-08T05:12:21.123Z,17.33
2024-03-08T05:14:51.448Z,16.25
2024-03-08T05:17:19.205Z,13.30
2024-03-08T05:19:46.877Z,20.17
2024-03-08T05:22:15.269Z,17.92
2024-03-08T05:24:42.566Z,16.63
2024-03-08T05:27:09.988Z,22.10
2024-03-08T05:29:37.349Z,16.13
2024-03-08T05:32:05.352Z,14.60
2024-03-08T05:34:32.706Z,16.73
2024-03-08T05:37:01.582Z,16.40
2024-03-08T05:39:29.162Z,14.45
2024-03-08T05:41:57.248Z,14.57
2024-03-08T05:44:24.627Z,17.08
2024-03-08T05:46:52.136Z,16.20
2024-03-08T05:49:19.456Z,15.77
2024-03-08T05:51:49.272Z,23.17
2024-03-08T05:54:19.091Z,13.52
2024-03-08T05:56:49.215Z,15.88
2024-03-08T05:59:16.793Z,48.47
2024-03-08T06:01:44.676Z,115.57
2024-03-08T06:04:15.772Z,88.43
2024-03-08T06:06:42.994Z,71.78
2024-03-08T06:09:13.395Z,29.83
2024-03-08T06:11:41.467Z,108.43
2024-03-08T06:14:09.072Z,40.05
2024-03-08T06:16:37.393Z,22.38
2024-03-08T06:19:05.114Z,17.30
2024-03-08T06:21:33.751Z,17.27
2024-03-08T06:24:01.753Z,17.92
2024-03-08T06:26:30.941Z,14.55
2024-03-08T06:28:59.568Z,13.02
2024-03-08T06:31:27.182Z,15.68
2024-03-08T06:33:57.173Z,12.32
2024-03-08T06:36:25.314Z,13.75
2024-03-08T06:38:53.247Z,14.50
2024-03-08T06:41:21.245Z,12.13
2024-03-08T06:43:50.460Z,57.13
2024-03-08T06:46:17.975Z,19.27
2024-03-08T06:48:47.715Z,15.63
2024-03-08T06:51:16.106Z,13.20
2024-03-08T06:53:43.885Z,15.30
2024-03-08T06:56:12.359Z,13.50
2024-03-08T06:58:40.615Z,13.93
2024-03-08T07:01:15.567Z,16.13
2024-03-08T07:03:46.052Z,12.68
2024-03-08T07:06:16.850Z,12.00
2024-03-08T07:08:47.328Z,12.90
2024-03-08T07:11:17.301Z,13.10
2024-03-08T07:13:44.643Z,16.17
2024-03-08T07:16:13.302Z,12.82
2024-03-08T07:18:45.583Z,10.20
2024-03-08T07:21:13.212Z,10.32
2024-03-08T07:24:10.940Z,10.55
2024-03-08T07:26:39.777Z,11.05
2024-03-08T07:29:07.009Z,10.63
2024-03-08T07:32:01.227Z,10.60
2024-03-08T07:34:28.755Z,16.25
2024-03-08T07:36:57.752Z,14.05
2024-03-08T07:39:25.104Z,12.23
2024-03-08T07:41:54.025Z,12.70
2024-03-08T07:44:21.358Z,13.15
2024-03-08T07:46:48.651Z,12.93
2024-03-08T07:49:16.618Z,13.80
2024-03-08T07:51:45.686Z,13.93
2024-03-08T07:54:13.399Z,12.82
2024-03-08T07:56:40.704Z,14.48
2024-03-08T07:59:08.673Z,19.17
2024-03-08T08:01:36.510Z,11.55
2024-03-08T08:04:07.962Z,12.63
2024-03-08T08:06:36.202Z,14.90
2024-03-08T08:09:03.460Z,18.27
2024-03-08T08:11:30.810Z,12.95
2024-03-08T08:13:58.186Z,16.00
2024-03-08T08:16:27.116Z,11.82
2024-03-08T08:18:54.539Z,13.18
2024-03-08T08:21:23.438Z,13.95
2024-03-08T08:23:50.784Z,14.70
2024-03-08T08:26:18.114Z,16.77
2024-03-08T08:28:47.433Z,14.25
2024-03-08T08:31:14.755Z,14.88
2024-03-08T08:33:42.118Z,11.95
2024-03-08T08:36:09.742Z,19.17
2024-03-08T08:38:38.064Z,16.05
2024-03-08T08:41:06.625Z,15.90
2024-03-08T08:43:35.429Z,15.35
2024-03-08T08:46:03.617Z,14.95
2024-03-08T08:48:31.962Z,15.98
2024-03-08T08:50:59.162Z,15.23
2024-03-08T08:53:26.386Z,15.77
2024-03-08T08:55:54.737Z,15.68
2024-03-08T08:58:22.047Z,11.85
2024-03-08T09:00:49.432Z,19.58
2024-03-08T09:03:18.437Z,15.43
2024-03-08T09:05:46.380Z,12.77
2024-03-08T09:08:14.369Z,15.32
2024-03-08T09:10:41.882Z,13.00
2024-03-08T09:13:15.480Z,11.82
2024-03-08T09:15:45.723Z,11.57
2024-03-08T09:18:12.987Z,15.13
2024-03-08T09:20:43.190Z,13.48
2024-03-08T09:23:10.517Z,14.82
2024-03-08T09:25:37.839Z,13.73
2024-03-08T09:28:07.078Z,12.48
2024-03-08T09:30:35.728Z,13.65
2024-03-08T09:33:03.571Z,12.23
2024-03-08T09:35:31.365Z,12.35
2024-03-08T09:37:58.670Z,15.40
2024-03-08T09:40:26.954Z,13.10
2024-03-08T09:42:54.348Z,12.07
2024-03-08T09:45:26.289Z,10.63
2024-03-08T09:47:54.548Z,11.32
2024-03-08T09:50:22.984Z,21.08
2024-03-08T09:52:51.709Z,13.25
2024-03-08T09:55:23.931Z,11.95
2024-03-08T09:58:11.420Z,10.30
2024-03-08T10:00:39.054Z,14.40
2024-03-08T10:03:06.778Z,12.25
2024-03-08T10:05:35.079Z,11.70
2024-03-08T10:08:02.442Z,11.98
2024-03-08T10:10:29.998Z,15.02
2024-03-08T10:12:58.088Z,9.93
2024-03-08T10:15:25.561Z,11.30
2024-03-08T10:17:54.596Z,12.65
2024-03-08T10:20:22.364Z,11.50
2024-03-08T10:22:58.560Z,13.27
2024-03-08T10:25:36.007Z,12.82
2024-03-08T10:28:07.549Z,17.02
2024-03-08T10:30:34.812Z,14.63
2024-03-08T10:33:03.808Z,11.73
2024-03-08T10:35:32.396Z,12.20
2024-03-08T10:38:04.455Z,10.60
2024-03-08T10:40:31.990Z,14.10
2024-03-08T10:43:00.768Z,17.92
2024-03-08T10:45:39.066Z,12.27
2024-03-08T10:48:24.686Z,15.25
2024-03-08T10:50:54.502Z,9.50
2024-03-08T10:53:25.288Z,10.10
2024-03-08T10:55:55.007Z,10.07
2024-03-08T10:58:24.764Z,10.23
2024-03-08T11:00:52.162Z,16.43
2024-03-08T11:03:41.298Z,8.40
2024-03-08T11:06:10.819Z,10.23
2024-03-08T11:08:38.164Z,8.88
2024-03-08T11:11:06.038Z,9.27
2024-03-08T11:13:38.414Z,9.40
2024-03-08T11:16:11.219Z,8.20
2024-03-08T11:18:39.776Z,8.48
2024-03-08T11:21:14.170Z,9.98
2024-03-08T11:23:41.856Z,7.93
2024-03-08T11:26:22.160Z,8.95
2024-03-08T11:28:49.552Z,8.00
2024-03-08T11:31:22.778Z,7.20
2024-03-08T11:33:50.675Z,7.38
2024-03-08T11:36:25.766Z,7.93
2024-03-08T11:38:55.527Z,9.55
2024-03-08T11:41:24.674Z,8.37
2024-03-08T11:44:10.052Z,7.47
2024-03-08T11:46:37.448Z,8.55
2024-03-08T11:49:05.000Z,7.57
2024-03-08T11:51:34.008Z,7.90
2024-03-08T11:54:01.348Z,5.95
2024-03-08T11:56:29.186Z,6.10
2024-03-08T11:58:59.083Z,8.52
2024-03-08T12:01:29.615Z,6.57
2024-03-08T12:06:38.959Z,6.32
2024-03-08T12:09:10.879Z,5.28
2024-03-08T12:11:39.379Z,6.30
2024-03-08T12:14:08.279Z,5.13
2024-03-08T12:16:39.091Z,6.22
2024-03-08T12:19:07.206Z,5.45
2024-03-08T12:21:35.987Z,6.53
2024-03-08T12:24:11.221Z,5.53
2024-03-08T12:26:40.006Z,5.60
2024-03-08T12:29:24.404Z,3.92
2024-03-08T12:31:56.779Z,5.03
2024-03-08T12:34:24.242Z,3.47
2024-03-08T12:37:00.385Z,4.93
2024-03-08T12:39:28.779Z,3.58
2024-03-08T12:41:58.618Z,3.85
2024-03-08T12:44:27.622Z,3.35
2024-03-08T12:46:55.446Z,4.78
2024-03-08T12:49:24.075Z,4.07
2024-03-08T12:51:54.357Z,5.78
2024-03-08T12:54:25.220Z,3.38
2024-03-08T12:56:55.295Z,5.13
2024-03-08T12:59:26.093Z,3.72
2024-03-08T13:01:55.555Z,3.13
2024-03-08T13:04:23.246Z,2.97
2024-03-08T13:06:54.845Z,8.75
2024-03-08T13:09:23.898Z,3.92
2024-03-08T13:11:51.486Z,4.22
2024-03-08T13:14:18.820Z,4.63
2024-03-08T13:16:51.170Z,4.50
2024-03-08T13:19:18.659Z,5.47
2024-03-08T13:21:50.946Z,4.25
2024-03-08T13:24:20.226Z,4.95
2024-03-08T13:26:49.238Z,2.92
2024-03-08T13:29:17.542Z,2.97
2024-03-08T13:31:44.849Z,3.67
2024-03-08T13:34:12.863Z,4.15
2024-03-08T13:36:45.742Z,2.72
2024-03-08T13:39:22.437Z,5.43
2024-03-08T13:41:49.734Z,3.25
2024-03-08T13:44:18.581Z,3.20
2024-03-08T13:46:51.074Z,2.90
2024-03-08T13:49:20.047Z,6.65
2024-03-08T13:51:48.305Z,3.30
2024-03-08T13:54:17.684Z,3.78
2024-03-08T13:56:46.196Z,3.72
2024-03-08T13:59:13.617Z,3.67
2024-03-08T14:01:40.963Z,5.43
2024-03-08T14:04:09.908Z,4.82
2024-03-08T14:09:09.847Z,4.30
2024-03-08T14:11:37.087Z,2.63
2024-03-08T14:14:04.406Z,3.53
2024-03-08T14:16:31.765Z,4.28
2024-03-08T14:19:04.849Z,3.85
2024-03-08T14:21:32.229Z,3.38
2024-03-08T14:23:59.565Z,4.00
2024-03-08T14:26:27.522Z,4.28
2024-03-08T14:28:55.825Z,6.25
2024-03-08T14:31:26.878Z,4.23
2024-03-08T14:33:54.290Z,4.40
2024-03-08T14:36:21.819Z,3.75
2024-03-08T14:38:48.998Z,3.65
2024-03-08T14:41:16.584Z,4.97
2024-03-08T14:43:47.191Z,3.38
2024-03-08T14:46:18.754Z,4.28
2024-03-08T14:48:49.440Z,6.30
2024-03-08T14:51:21.180Z,3.78
2024-03-08T14:53:51.075Z,4.53
2024-03-08T14:56:18.469Z,3.45
2024-03-08T14:58:50.748Z,3.55
2024-03-08T15:01:26.214Z,3.45
2024-03-08T15:03:53.400Z,2.95
2024-03-08T15:06:22.468Z,3.92
2024-03-08T15:08:49.999Z,2.95
2024-03-08T15:11:23.486Z,4.45
2024-03-08T15:13:54.606Z,6.53
2024-03-08T15:16:24.782Z,5.38
2024-03-08T15:18:53.287Z,3.97
2024-03-08T15:21:21.176Z,4.75
2024-03-08T15:23:53.669Z,4.75
2024-03-08T15:26:21.600Z,5.68
2024-03-08T15:28:53.461Z,5.25
2024-03-08T15:31:23.584Z,6.25
2024-03-08T15:33:54.247Z,5.55
2024-03-08T15:36:22.977Z,5.22
2024-03-08T15:38:52.954Z,5.13
2024-03-08T15:41:22.354Z,5.30
2024-03-08T15:43:51.350Z,5.22
2024-03-08T15:46:20.242Z,6.72
2024-03-08T15:48:48.372Z,6.72
2024-03-08T15:51:18.939Z,4.72
2024-03-08T15:53:54.310Z,5.32
2024-03-08T15:56:25.441Z,4.63
2024-03-08T15:58:54.727Z,4.72
2024-03-08T16:01:24.450Z,9.30
2024-03-08T16:03:52.406Z,9.85
2024-03-08T16:06:23.031Z,6.07
2024-03-08T16:08:51.008Z,5.93
2024-03-08T16:11:20.400Z,7.57
2024-03-08T16:13:48.043Z,6.15
2024-03-08T16:16:15.572Z,6.50
2024-03-08T16:18:43.320Z,6.60
2024-03-08T16:21:10.538Z,9.82
2024-03-08T16:23:39.881Z,16.63
2024-03-08T16:26:07.785Z,15.38
2024-03-08T16:28:43.169Z,26.08
2024-03-08T16:31:12.429Z,42.47
2024-03-08T16:33:40.602Z,26.42
2024-03-08T16:36:08.678Z,16.38
2024-03-08T16:38:38.465Z,9.02
2024-03-08T16:41:07.522Z,6.75
2024-03-08T16:43:35.032Z,6.63
2024-03-08T16:46:05.503Z,7.95
2024-03-08T16:51:01.389Z,7.53
2024-03-08T16:53:29.707Z,6.38
2024-03-08T16:55:58.909Z,7.75
2024-03-08T16:58:26.884Z,9.05
2024-03-08T17:00:54.224Z,7.53
2024-03-08T17:03:22.419Z,9.93
2024-03-08T17:05:55.490Z,9.00
2024-03-08T17:08:24.079Z,11.13
2024-03-08T17:10:53.044Z,8.10
2024-03-08T17:13:20.703Z,8.63
2024-03-08T17:15:50.274Z,7.63
2024-03-08T17:18:18.246Z,8.68
2024-03-08T17:20:46.119Z,7.38
2024-03-08T17:23:15.207Z,8.50
2024-03-08T17:25:44.097Z,7.68
2024-03-08T17:28:13.476Z,6.43
2024-03-08T17:30:42.585Z,6.65
2024-03-08T17:33:20.384Z,10.88
2024-03-08T17:35:48.796Z,78.13
2024-03-08T17:38:19.842Z,26.48
2024-03-08T17:40:47.408Z,20.38
2024-03-08T17:43:15.416Z,18.17
2024-03-08T17:45:47.597Z,19.02
2024-03-08T17:48:18.438Z,94.00
2024-03-08T17:50:52.579Z,143.50
2024-03-08T17:53:20.487Z,27.83
2024-03-08T17:55:51.875Z,17.15
2024-03-08T17:58:20.208Z,14.77
2024-03-08T18:00:48.365Z,16.48
2024-03-08T18:03:20.054Z,18.60
2024-03-08T18:05:47.494Z,97.03
2024-03-08T18:08:17.335Z,28.15
2024-03-08T18:10:44.669Z,15.80
2024-03-08T18:13:15.345Z,12.25
2024-03-08T18:15:49.547Z,12.32
2024-03-08T18:18:19.106Z,12.55
2024-03-08T18:20:49.874Z,13.32
2024-03-08T18:23:22.791Z,13.75
2024-03-08T18:25:51.944Z,18.20
2024-03-08T18:28:22.656Z,22.23
2024-03-08T18:30:51.080Z,17.65
2024-03-08T18:33:19.658Z,17.20
2024-03-08T18:35:49.062Z,18.90
2024-03-08T18:38:24.162Z,19.10
2024-03-08T18:40:54.038Z,17.40
2024-03-08T18:43:30.501Z,15.18
2024-03-08T18:45:58.945Z,17.10
2024-03-08T18:48:30.962Z,23.20
2024-03-08T18:51:00.747Z,21.90
2024-03-08T18:53:33.972Z,28.05
2024-03-08T18:56:03.071Z,24.73
2024-03-08T18:58:42.295Z,18.88
2024-03-08T19:01:14.074Z,18.15
2024-03-08T19:03:42.813Z,15.25
2024-03-08T19:06:10.230Z,14.05
2024-03-08T19:08:38.290Z,15.52
2024-03-08T19:11:06.296Z,19.13
2024-03-08T19:13:34.859Z,18.55
2024-03-08T19:16:02.672Z,16.38
2024-03-08T19:18:31.324Z,12.13
2024-03-08T19:20:59.419Z,14.18
2024-03-08T19:23:28.064Z,12.93
2024-03-08T19:25:55.178Z,13.93
2024-03-08T19:28:23.109Z,11.50
2024-03-08T19:30:53.071Z,12.35
2024-03-08T19:33:22.250Z,10.85
2024-03-08T19:35:49.578Z,11.98
2024-03-08T19:38:17.272Z,11.73
2024-03-08T19:40:46.137Z,11.07
2024-03-08T19:43:17.402Z,15.02
2024-03-08T19:48:22.597Z,12.15
2024-03-08T19:50:51.202Z,11.73
2024-03-08T19:53:19.542Z,11.80
2024-03-08T19:55:52.495Z,12.02
2024-03-08T19:58:22.102Z,13.10
2024-03-08T20:00:50.182Z,10.57
2024-03-08T20:03:23.510Z,11.13
2024-03-08T20:05:55.754Z,10.77
2024-03-08T20:08:35.226Z,11.80
2024-03-08T20:11:05.308Z,12.43
2024-03-08T20:13:36.347Z,11.95
2024-03-08T20:16:06.020Z,11.43
2024-03-08T20:18:34.084Z,20.58
2024-03-08T20:21:02.725Z,19.65
2024-03-08T20:23:31.122Z,17.90
2024-03-08T20:26:04.234Z,18.50
2024-03-08T20:28:35.398Z,16.45
2024-03-08T20:31:03.025Z,16.75
2024-03-08T20:33:33.456Z,14.10
2024-03-08T20:38:28.835Z,15.27
2024-03-08T20:40:57.165Z,18.63
2024-03-08T20:43:29.741Z,18.95
2024-03-08T20:45:59.081Z,18.02
2024-03-08T20:48:26.485Z,18.75
2024-03-08T20:50:55.203Z,14.50
2024-03-08T20:53:25.289Z,13.85
2024-03-08T20:55:54.400Z,11.77
2024-03-08T20:58:24.431Z,13.38
2024-03-08T21:01:00.287Z,10.05
2024-03-08T21:03:28.807Z,13.00
2024-03-08T21:06:00.434Z,11.45
2024-03-08T21:08:29.007Z,22.63
2024-03-08T21:10:58.078Z,12.02
2024-03-08T21:13:27.117Z,9.75
2024-03-08T21:15:56.014Z,9.88
2024-03-08T21:18:26.924Z,11.70
2024-03-08T21:20:57.265Z,10.73
2024-03-08T21:23:26.864Z,10.85
2024-03-08T21:26:03.420Z,11.48
2024-03-08T21:28:31.318Z,13.80
2024-03-08T21:31:02.289Z,11.50
2024-03-08T21:33:30.586Z,12.18
2024-03-08T21:36:02.668Z,12.32
2024-03-08T21:38:30.545Z,12.60
2024-03-08T21:41:03.545Z,14.45
2024-03-08T21:43:36.435Z,12.82
2024-03-08T21:46:04.485Z,13.25
2024-03-08T21:48:36.228Z,12.88
2024-03-08T21:51:04.480Z,14.13
2024-03-08T21:53:35.540Z,13.60
2024-03-08T21:56:06.688Z,13.05
2024-03-08T21:58:34.861Z,13.07
2024-03-08T22:01:04.611Z,11.32
2024-03-08T22:03:33.024Z,14.60
2024-03-08T22:06:00.496Z,15.40
2024-03-08T22:08:28.399Z,12.07
2024-03-08T22:10:57.745Z,14.05
2024-03-08T22:13:25.691Z,14.38
2024-03-08T22:15:53.701Z,13.05
2024-03-08T22:18:21.269Z,12.88
2024-03-08T22:20:48.629Z,14.57
2024-03-08T22:23:18.158Z,11.98
2024-03-08T22:25:48.168Z,13.73
2024-03-08T22:28:16.522Z,12.40
2024-03-08T22:30:45.702Z,12.32
2024-03-08T22:33:13.250Z,12.32
2024-03-08T22:35:40.817Z,12.73
2024-03-08T22:38:10.520Z,12.85
2024-03-08T22:40:38.679Z,15.63
2024-03-08T22:43:08.254Z,11.60
2024-03-08T22:45:35.832Z,12.88
2024-03-08T22:48:05.335Z,15.88
2024-03-08T22:50:38.236Z,17.58
2024-03-08T22:53:06.958Z,16.88
2024-03-08T22:55:34.332Z,17.73
2024-03-08T22:58:02.915Z,21.25
2024-03-08T23:00:39.186Z,21.92
2024-03-08T23:03:12.030Z,22.65
2024-03-08T23:05:42.522Z,22.75
2024-03-08T23:08:10.234Z,22.80
2024-03-08T23:10:40.654Z,20.83
2024-03-08T23:13:11.283Z,16.65
2024-03-08T23:15:43.245Z,18.85
2024-03-08T23:18:13.868Z,18.02
2024-03-08T23:23:13.433Z,39.25
2024-03-08T23:25:42.465Z,167.77
2024-03-08T23:28:16.540Z,212.85
2024-03-08T23:30:45.986Z,57.17
2024-03-08T23:33:16.059Z,18.35
2024-03-08T23:35:46.037Z,15.93
2024-03-08T23:40:43.468Z,15.82
2024-03-08T23:43:10.881Z,16.90
2024-03-08T23:45:39.556Z,16.65
2024-03-08T23:48:07.908Z,15.65
2024-03-08T23:50:36.078Z,13.82
2024-03-08T23:53:08.188Z,15.52
2024-03-08T23:55:37.712Z,16.52
2024-03-08T23:58:13.697Z,14.07
